sensor_id;sensor_type;location;lat;lon;timestamp;P1;durP1;ratioP1;P2;durP2;ratioP2
8319;SDS011;4197;42.130;24.746;2023-07-09T00:01:53;4.45;;;3.65;;
8319;SDS011;4197;42.130;24.746;2023-07-09T00:04:23;7.78;;;3.38;;
8319;SDS011;4197;42.130;24.746;2023-07-09T00:06:51;5.95;;;3.85;;
8319;SDS011;4197;42.130;24.746;2023-07-09T00:09:20;6.35;;;3.67;;
8319;SDS011;4197;42.130;24.746;2023-07-09T00:11:49;6.30;;;3.80;;
8319;SDS011;4197;42.130;24.746;2023-07-09T00:14:19;7.72;;;4.10;;
8319;SDS011;4197;42.130;24.746;2023-07-09T00:16:49;6.47;;;3.80;;
8319;SDS011;4197;42.130;24.746;2023-07-09T00:19:18;5.75;;;3.90;;
8319;SDS011;4197;42.130;24.746;2023-07-09T00:21:52;7.55;;;3.83;;
8319;SDS011;4197;42.130;24.746;2023-07-09T00:24:21;7.68;;;4.13;;
8319;SDS011;4197;42.130;24.746;2023-07-09T00:26:49;6.25;;;3.65;;
8319;SDS011;4197;42.130;24.746;2023-07-09T00:29:18;5.18;;;3.63;;
8319;SDS011;4197;42.130;24.746;2023-07-09T00:31:46;6.32;;;3.25;;
8319;SDS011;4197;42.130;24.746;2023-07-09T00:34:15;9.10;;;4.15;;
8319;SDS011;4197;42.130;24.746;2023-07-09T00:36:48;6.28;;;3.75;;
8319;SDS011;4197;42.130;24.746;2023-07-09T00:39:19;5.10;;;3.50;;
8319;SDS011;4197;42.130;24.746;2023-07-09T00:41:48;5.72;;;3.95;;
8319;SDS011;4197;42.130;24.746;2023-07-09T00:44:23;4.90;;;3.17;;
8319;SDS011;4197;42.130;24.746;2023-07-09T00:47:21;4.25;;;3.10;;
8319;SDS011;4197;42.130;24.746;2023-07-09T00:49:56;4.85;;;3.63;;
8319;SDS011;4197;42.130;24.746;2023-07-09T00:52:37;6.57;;;3.25;;
8319;SDS011;4197;42.130;24.746;2023-07-09T00:55:14;5.55;;;3.83;;
8319;SDS011;4197;42.130;24.746;2023-07-09T00:57:45;6.50;;;3.63;;
8319;SDS011;4197;42.130;24.746;2023-07-09T01:00:23;5.18;;;3.40;;
8319;SDS011;4197;42.130;24.746;2023-07-09T01:02:55;6.10;;;3.28;;
8319;SDS011;4197;42.130;24.746;2023-07-09T01:05:26;5.55;;;3.65;;
8319;SDS011;4197;42.130;24.746;2023-07-09T01:07:54;8.18;;;3.78;;
8319;SDS011;4197;42.130;24.746;2023-07-09T01:10:26;4.38;;;3.83;;
8319;SDS011;4197;42.130;24.746;2023-07-09T01:12:55;3.90;;;3.50;;
8319;SDS011;4197;42.130;24.746;2023-07-09T01:15:24;7.60;;;3.65;;
8319;SDS011;4197;42.130;24.746;2023-07-09T01:17:53;7.68;;;4.00;;
8319;SDS011;4197;42.130;24.746;2023-07-09T01:20:21;5.40;;;3.63;;
8319;SDS011;4197;42.130;24.746;2023-07-09T01:22:51;3.95;;;3.45;;
8319;SDS011;4197;42.130;24.746;2023-07-09T01:25:23;4.97;;;3.40;;
8319;SDS011;4197;42.130;24.746;2023-07-09T01:27:52;4.57;;;3.30;;
8319;SDS011;4197;42.130;24.746;2023-07-09T01:30:22;4.25;;;3.42;;
8319;SDS011;4197;42.130;24.746;2023-07-09T01:32:55;6.18;;;3.38;;
8319;SDS011;4197;42.130;24.746;2023-07-09T01:35:25;5.72;;;3.60;;
8319;SDS011;4197;42.130;24.746;2023-07-09T01:37:56;3.67;;;3.30;;
8319;SDS011;4197;42.130;24.746;2023-07-09T01:40:26;5.10;;;3.38;;
8319;SDS011;4197;42.130;24.746;2023-07-09T01:42:59;4.80;;;3.40;;
8319;SDS011;4197;42.130;24.746;2023-07-09T01:45:28;3.80;;;3.00;;
8319;SDS011;4197;42.130;24.746;2023-07-09T01:47:59;5.63;;;3.58;;
8319;SDS011;4197;42.130;24.746;2023-07-09T01:50:29;5.45;;;3.17;;
8319;SDS011;4197;42.130;24.746;2023-07-09T01:52:58;5.35;;;3.30;;
8319;SDS011;4197;42.130;24.746;2023-07-09T01:55:27;6.60;;;3.65;;
8319;SDS011;4197;42.130;24.746;2023-07-09T01:57:56;5.43;;;3.30;;
8319;SDS011;4197;42.130;24.746;2023-07-09T02:00:24;5.80;;;3.33;;
8319;SDS011;4197;42.130;24.746;2023-07-09T02:02:53;5.25;;;3.28;;
8319;SDS011;4197;42.130;24.746;2023-07-09T02:05:22;3.88;;;3.40;;
8319;SDS011;4197;42.130;24.746;2023-07-09T02:07:50;4.45;;;3.70;;
8319;SDS011;4197;42.130;24.746;2023-07-09T02:10:20;5.22;;;3.08;;
8319;SDS011;4197;42.130;24.746;2023-07-09T02:12:48;4.78;;;3.30;;
8319;SDS011;4197;42.130;24.746;2023-07-09T02:15:16;3.75;;;2.88;;
8319;SDS011;4197;42.130;24.746;2023-07-09T02:17:46;4.28;;;3.20;;
8319;SDS011;4197;42.130;24.746;2023-07-09T02:20:14;5.25;;;3.42;;
8319;SDS011;4197;42.130;24.746;2023-07-09T02:22:42;4.00;;;3.10;;
8319;SDS011;4197;42.130;24.746;2023-07-09T02:25:11;5.50;;;3.50;;
8319;SDS011;4197;42.130;24.746;2023-07-09T02:27:41;5.82;;;3.10;;
8319;SDS011;4197;42.130;24.746;2023-07-09T02:30:09;5.60;;;3.17;;
8319;SDS011;4197;42.130;24.746;2023-07-09T02:32:38;8.35;;;3.83;;
8319;SDS011;4197;42.130;24.746;2023-07-09T02:35:08;4.25;;;3.00;;
8319;SDS011;4197;42.130;24.746;2023-07-09T02:37:36;3.90;;;3.03;;
8319;SDS011;4197;42.130;24.746;2023-07-09T02:40:05;12.18;;;3.63;;
8319;SDS011;4197;42.130;24.746;2023-07-09T02:42:35;4.43;;;3.10;;
8319;SDS011;4197;42.130;24.746;2023-07-09T02:45:06;5.10;;;3.45;;
8319;SDS011;4197;42.130;24.746;2023-07-09T02:47:35;4.63;;;3.65;;
8319;SDS011;4197;42.130;24.746;2023-07-09T02:50:04;4.32;;;3.53;;
8319;SDS011;4197;42.130;24.746;2023-07-09T02:52:33;9.02;;;3.55;;
8319;SDS011;4197;42.130;24.746;2023-07-09T02:55:01;5.05;;;3.10;;
8319;SDS011;4197;42.130;24.746;2023-07-09T02:57:29;5.95;;;3.50;;
8319;SDS011;4197;42.130;24.746;2023-07-09T02:59:57;4.65;;;3.13;;
8319;SDS011;4197;42.130;24.746;2023-07-09T03:02:27;4.50;;;3.20;;
8319;SDS011;4197;42.130;24.746;2023-07-09T03:04:55;6.15;;;3.70;;
8319;SDS011;4197;42.130;24.746;2023-07-09T03:07:27;5.30;;;3.47;;
8319;SDS011;4197;42.130;24.746;2023-07-09T03:09:55;5.60;;;3.65;;
8319;SDS011;4197;42.130;24.746;2023-07-09T03:12:23;6.18;;;3.67;;
8319;SDS011;4197;42.130;24.746;2023-07-09T03:14:52;8.15;;;3.60;;
8319;SDS011;4197;42.130;24.746;2023-07-09T03:17:21;4.68;;;3.17;;
8319;SDS011;4197;42.130;24.746;2023-07-09T03:19:50;9.27;;;3.40;;
8319;SDS011;4197;42.130;24.746;2023-07-09T03:22:19;6.20;;;3.38;;
8319;SDS011;4197;42.130;24.746;2023-07-09T03:24:47;3.88;;;3.10;;
8319;SDS011;4197;42.130;24.746;2023-07-09T03:27:15;4.50;;;3.38;;
8319;SDS011;4197;42.130;24.746;2023-07-09T03:29:43;5.05;;;3.95;;
8319;SDS011;4197;42.130;24.746;2023-07-09T03:32:12;5.57;;;3.28;;
8319;SDS011;4197;42.130;24.746;2023-07-09T03:34:40;5.38;;;3.55;;
8319;SDS011;4197;42.130;24.746;2023-07-09T03:37:10;7.13;;;3.50;;
8319;SDS011;4197;42.130;24.746;2023-07-09T03:39:38;4.43;;;3.53;;
8319;SDS011;4197;42.130;24.746;2023-07-09T03:42:09;4.03;;;3.28;;
8319;SDS011;4197;42.130;24.746;2023-07-09T03:44:38;4.78;;;3.10;;
8319;SDS011;4197;42.130;24.746;2023-07-09T03:47:07;5.40;;;3.70;;
8319;SDS011;4197;42.130;24.746;2023-07-09T03:49:36;4.18;;;3.05;;
8319;SDS011;4197;42.130;24.746;2023-07-09T03:52:05;5.72;;;3.10;;
8319;SDS011;4197;42.130;24.746;2023-07-09T03:54:35;12.07;;;3.55;;
8319;SDS011;4197;42.130;24.746;2023-07-09T03:57:03;6.22;;;3.40;;
8319;SDS011;4197;42.130;24.746;2023-07-09T03:59:32;3.97;;;3.03;;
8319;SDS011;4197;42.130;24.746;2023-07-09T04:02:01;4.50;;;3.22;;
8319;SDS011;4197;42.130;24.746;2023-07-09T04:04:29;4.05;;;3.13;;
8319;SDS011;4197;42.130;24.746;2023-07-09T04:06:57;4.70;;;3.25;;
8319;SDS011;4197;42.130;24.746;2023-07-09T04:09:26;5.80;;;3.22;;
8319;SDS011;4197;42.130;24.746;2023-07-09T04:11:56;5.20;;;3.08;;
8319;SDS011;4197;42.130;24.746;2023-07-09T04:14:27;4.95;;;3.17;;
8319;SDS011;4197;42.130;24.746;2023-07-09T04:16:55;6.38;;;3.10;;
8319;SDS011;4197;42.130;24.746;2023-07-09T04:19:24;3.92;;;3.00;;
8319;SDS011;4197;42.130;24.746;2023-07-09T04:21:52;4.72;;;3.30;;
8319;SDS011;4197;42.130;24.746;2023-07-09T04:24:21;5.13;;;2.90;;
8319;SDS011;4197;42.130;24.746;2023-07-09T04:26:50;4.35;;;3.25;;
8319;SDS011;4197;42.130;24.746;2023-07-09T04:29:24;5.47;;;2.80;;
8319;SDS011;4197;42.130;24.746;2023-07-09T04:31:53;8.00;;;3.40;;
8319;SDS011;4197;42.130;24.746;2023-07-09T04:34:21;4.38;;;3.05;;
8319;SDS011;4197;42.130;24.746;2023-07-09T04:36:50;3.90;;;3.17;;
8319;SDS011;4197;42.130;24.746;2023-07-09T04:39:18;5.35;;;3.58;;
8319;SDS011;4197;42.130;24.746;2023-07-09T04:41:47;5.13;;;2.75;;
8319;SDS011;4197;42.130;24.746;2023-07-09T04:44:15;6.30;;;3.10;;
8319;SDS011;4197;42.130;24.746;2023-07-09T04:46:45;8.73;;;3.70;;
8319;SDS011;4197;42.130;24.746;2023-07-09T04:49:15;5.40;;;3.20;;
8319;SDS011;4197;42.130;24.746;2023-07-09T04:51:44;4.70;;;3.13;;
8319;SDS011;4197;42.130;24.746;2023-07-09T04:54:12;9.38;;;3.95;;
8319;SDS011;4197;42.130;24.746;2023-07-09T04:56:41;5.20;;;3.20;;
8319;SDS011;4197;42.130;24.746;2023-07-09T04:59:11;8.23;;;3.92;;
8319;SDS011;4197;42.130;24.746;2023-07-09T05:01:39;3.15;;;2.70;;
8319;SDS011;4197;42.130;24.746;2023-07-09T05:04:09;4.32;;;3.05;;
8319;SDS011;4197;42.130;24.746;2023-07-09T05:06:37;5.90;;;3.00;;
8319;SDS011;4197;42.130;24.746;2023-07-09T05:09:06;7.97;;;3.47;;
8319;SDS011;4197;42.130;24.746;2023-07-09T05:11:35;3.97;;;2.80;;
8319;SDS011;4197;42.130;24.746;2023-07-09T05:14:03;5.93;;;3.17;;
8319;SDS011;4197;42.130;24.746;2023-07-09T05:16:32;5.63;;;3.00;;
8319;SDS011;4197;42.130;24.746;2023-07-09T05:19:01;5.85;;;3.45;;
8319;SDS011;4197;42.130;24.746;2023-07-09T05:21:30;7.93;;;3.08;;
8319;SDS011;4197;42.130;24.746;2023-07-09T05:23:59;5.15;;;3.30;;
8319;SDS011;4197;42.130;24.746;2023-07-09T05:26:30;4.93;;;2.78;;
8319;SDS011;4197;42.130;24.746;2023-07-09T05:28:58;4.57;;;3.22;;
8319;SDS011;4197;42.130;24.746;2023-07-09T05:31:27;7.03;;;3.50;;
8319;SDS011;4197;42.130;24.746;2023-07-09T05:33:55;9.43;;;2.78;;
8319;SDS011;4197;42.130;24.746;2023-07-09T05:36:23;5.85;;;3.33;;
8319;SDS011;4197;42.130;24.746;2023-07-09T05:38:53;6.32;;;2.90;;
8319;SDS011;4197;42.130;24.746;2023-07-09T05:41:22;4.82;;;3.10;;
8319;SDS011;4197;42.130;24.746;2023-07-09T05:43:50;5.80;;;3.08;;
8319;SDS011;4197;42.130;24.746;2023-07-09T05:46:21;4.90;;;3.05;;
8319;SDS011;4197;42.130;24.746;2023-07-09T05:48:50;6.97;;;2.90;;
8319;SDS011;4197;42.130;24.746;2023-07-09T05:51:18;4.90;;;2.67;;
8319;SDS011;4197;42.130;24.746;2023-07-09T05:53:48;5.13;;;2.50;;
8319;SDS011;4197;42.130;24.746;2023-07-09T05:56:18;6.03;;;3.20;;
8319;SDS011;4197;42.130;24.746;2023-07-09T05:58:47;5.20;;;2.47;;
8319;SDS011;4197;42.130;24.746;2023-07-09T06:01:15;3.42;;;2.55;;
8319;SDS011;4197;42.130;24.746;2023-07-09T06:03:43;4.45;;;2.70;;
8319;SDS011;4197;42.130;24.746;2023-07-09T06:06:12;10.43;;;3.05;;
8319;SDS011;4197;42.130;24.746;2023-07-09T06:08:40;8.23;;;3.20;;
8319;SDS011;4197;42.130;24.746;2023-07-09T06:11:08;4.22;;;2.72;;
8319;SDS011;4197;42.130;24.746;2023-07-09T06:13:39;5.07;;;3.08;;
8319;SDS011;4197;42.130;24.746;2023-07-09T06:16:07;7.82;;;3.10;;
8319;SDS011;4197;42.130;24.746;2023-07-09T06:18:36;6.95;;;2.95;;
8319;SDS011;4197;42.130;24.746;2023-07-09T06:21:05;5.78;;;3.08;;
8319;SDS011;4197;42.130;24.746;2023-07-09T06:23:35;5.18;;;3.13;;
8319;SDS011;4197;42.130;24.746;2023-07-09T06:26:04;7.47;;;3.10;;
8319;SDS011;4197;42.130;24.746;2023-07-09T06:28:32;6.10;;;3.50;;
8319;SDS011;4197;42.130;24.746;2023-07-09T06:31:02;4.13;;;2.95;;
8319;SDS011;4197;42.130;24.746;2023-07-09T06:33:30;5.18;;;3.25;;
8319;SDS011;4197;42.130;24.746;2023-07-09T06:35:59;8.68;;;3.35;;
8319;SDS011;4197;42.130;24.746;2023-07-09T06:38:30;6.45;;;3.10;;
8319;SDS011;4197;42.130;24.746;2023-07-09T06:40:58;6.57;;;3.33;;
8319;SDS011;4197;42.130;24.746;2023-07-09T06:43:27;4.75;;;3.28;;
8319;SDS011;4197;42.130;24.746;2023-07-09T06:45:57;6.93;;;3.03;;
8319;SDS011;4197;42.130;24.746;2023-07-09T06:48:28;5.75;;;3.17;;
8319;SDS011;4197;42.130;24.746;2023-07-09T06:50:57;4.28;;;2.92;;
8319;SDS011;4197;42.130;24.746;2023-07-09T06:53:27;6.95;;;3.15;;
8319;SDS011;4197;42.130;24.746;2023-07-09T06:55:56;5.00;;;2.75;;
8319;SDS011;4197;42.130;24.746;2023-07-09T06:58:27;5.70;;;3.00;;
8319;SDS011;4197;42.130;24.746;2023-07-09T07:00:59;6.38;;;3.30;;
8319;SDS011;4197;42.130;24.746;2023-07-09T07:03:31;5.57;;;3.30;;
8319;SDS011;4197;42.130;24.746;2023-07-09T07:06:00;6.30;;;3.33;;
8319;SDS011;4197;42.130;24.746;2023-07-09T07:08:29;4.28;;;3.13;;
8319;SDS011;4197;42.130;24.746;2023-07-09T07:10:59;4.18;;;2.72;;
8319;SDS011;4197;42.130;24.746;2023-07-09T07:13:30;5.63;;;2.92;;
8319;SDS011;4197;42.130;24.746;2023-07-09T07:16:00;8.30;;;2.80;;
8319;SDS011;4197;42.130;24.746;2023-07-09T07:18:31;5.22;;;2.90;;
8319;SDS011;4197;42.130;24.746;2023-07-09T07:20:59;6.03;;;2.85;;
8319;SDS011;4197;42.130;24.746;2023-07-09T07:23:28;5.97;;;2.70;;
8319;SDS011;4197;42.130;24.746;2023-07-09T07:25:56;8.77;;;3.15;;
8319;SDS011;4197;42.130;24.746;2023-07-09T07:28:25;6.35;;;3.40;;
8319;SDS011;4197;42.130;24.746;2023-07-09T07:31:00;4.40;;;3.25;;
8319;SDS011;4197;42.130;24.746;2023-07-09T07:33:29;5.30;;;3.40;;
8319;SDS011;4197;42.130;24.746;2023-07-09T07:35:59;5.60;;;3.30;;
8319;SDS011;4197;42.130;24.746;2023-07-09T07:38:30;7.38;;;3.17;;
8319;SDS011;4197;42.130;24.746;2023-07-09T07:40:58;3.75;;;2.58;;
8319;SDS011;4197;42.130;24.746;2023-07-09T07:43:27;4.95;;;2.78;;
8319;SDS011;4197;42.130;24.746;2023-07-09T07:45:56;4.68;;;2.80;;
8319;SDS011;4197;42.130;24.746;2023-07-09T07:48:24;6.60;;;3.38;;
8319;SDS011;4197;42.130;24.746;2023-07-09T07:50:59;5.05;;;2.83;;
8319;SDS011;4197;42.130;24.746;2023-07-09T07:53:28;6.70;;;2.80;;
8319;SDS011;4197;42.130;24.746;2023-07-09T07:55:57;4.90;;;2.97;;
8319;SDS011;4197;42.130;24.746;2023-07-09T07:58:26;6.15;;;2.53;;
8319;SDS011;4197;42.130;24.746;2023-07-09T08:00:55;4.88;;;3.05;;
8319;SDS011;4197;42.130;24.746;2023-07-09T08:03:24;7.38;;;3.08;;
8319;SDS011;4197;42.130;24.746;2023-07-09T08:05:52;5.45;;;3.00;;
8319;SDS011;4197;42.130;24.746;2023-07-09T08:08:22;4.28;;;3.10;;
8319;SDS011;4197;42.130;24.746;2023-07-09T08:10:51;3.60;;;2.70;;
8319;SDS011;4197;42.130;24.746;2023-07-09T08:13:27;3.20;;;2.88;;
8319;SDS011;4197;42.130;24.746;2023-07-09T08:15:56;8.20;;;3.03;;
8319;SDS011;4197;42.130;24.746;2023-07-09T08:18:24;6.10;;;3.05;;
8319;SDS011;4197;42.130;24.746;2023-07-09T08:20:53;4.82;;;3.28;;
8319;SDS011;4197;42.130;24.746;2023-07-09T08:23:23;5.40;;;2.92;;
8319;SDS011;4197;42.130;24.746;2023-07-09T08:25:54;5.25;;;3.00;;
8319;SDS011;4197;42.130;24.746;2023-07-09T08:28:23;5.57;;;3.25;;
8319;SDS011;4197;42.130;24.746;2023-07-09T08:30:51;4.15;;;2.63;;
8319;SDS011;4197;42.130;24.746;2023-07-09T08:33:20;8.65;;;2.83;;
8319;SDS011;4197;42.130;24.746;2023-07-09T08:35:51;6.65;;;3.13;;
8319;SDS011;4197;42.130;24.746;2023-07-09T08:38:20;4.05;;;2.95;;
8319;SDS011;4197;42.130;24.746;2023-07-09T08:40:54;7.65;;;3.42;;
8319;SDS011;4197;42.130;24.746;2023-07-09T08:43:31;6.93;;;3.05;;
8319;SDS011;4197;42.130;24.746;2023-07-09T08:46:02;6.25;;;2.72;;
8319;SDS011;4197;42.130;24.746;2023-07-09T08:48:39;5.80;;;3.08;;
8319;SDS011;4197;42.130;24.746;2023-07-09T08:51:13;5.63;;;3.40;;
8319;SDS011;4197;42.130;24.746;2023-07-09T08:53:48;5.22;;;2.70;;
8319;SDS011;4197;42.130;24.746;2023-07-09T08:56:22;4.38;;;2.95;;
8319;SDS011;4197;42.130;24.746;2023-07-09T08:58:52;4.82;;;2.90;;
8319;SDS011;4197;42.130;24.746;2023-07-09T09:01:24;3.10;;;2.55;;
8319;SDS011;4197;42.130;24.746;2023-07-09T09:03:57;5.35;;;2.47;;
8319;SDS011;4197;42.130;24.746;2023-07-09T09:06:31;7.13;;;2.88;;
8319;SDS011;4197;42.130;24.746;2023-07-09T09:09:02;5.55;;;2.80;;
8319;SDS011;4197;42.130;24.746;2023-07-09T09:11:43;5.25;;;3.10;;
8319;SDS011;4197;42.130;24.746;2023-07-09T09:14:17;6.82;;;2.90;;
8319;SDS011;4197;42.130;24.746;2023-07-09T09:16:52;5.35;;;2.92;;
8319;SDS011;4197;42.130;24.746;2023-07-09T09:19:22;6.75;;;2.63;;
8319;SDS011;4197;42.130;24.746;2023-07-09T09:21:56;8.15;;;3.67;;
8319;SDS011;4197;42.130;24.746;2023-07-09T09:24:32;6.20;;;2.80;;
8319;SDS011;4197;42.130;24.746;2023-07-09T09:27:05;9.65;;;3.03;;
8319;SDS011;4197;42.130;24.746;2023-07-09T09:29:35;4.70;;;2.95;;
8319;SDS011;4197;42.130;24.746;2023-07-09T09:32:11;8.13;;;3.25;;
8319;SDS011;4197;42.130;24.746;2023-07-09T09:34:50;3.80;;;2.83;;
8319;SDS011;4197;42.130;24.746;2023-07-09T09:37:24;3.72;;;2.65;;
8319;SDS011;4197;42.130;24.746;2023-07-09T09:39:55;3.00;;;2.60;;
8319;SDS011;4197;42.130;24.746;2023-07-09T09:42:43;6.50;;;2.97;;
8319;SDS011;4197;42.130;24.746;2023-07-09T09:45:12;5.38;;;2.70;;
8319;SDS011;4197;42.130;24.746;2023-07-09T09:47:44;5.38;;;2.90;;
8319;SDS011;4197;42.130;24.746;2023-07-09T09:50:13;5.03;;;2.40;;
8319;SDS011;4197;42.130;24.746;2023-07-09T09:52:42;5.57;;;2.70;;
8319;SDS011;4197;42.130;24.746;2023-07-09T09:55:12;5.20;;;2.67;;
8319;SDS011;4197;42.130;24.746;2023-07-09T09:57:50;4.85;;;2.78;;
8319;SDS011;4197;42.130;24.746;2023-07-09T10:00:22;5.15;;;2.33;;
8319;SDS011;4197;42.130;24.746;2023-07-09T10:02:56;3.35;;;2.45;;
8319;SDS011;4197;42.130;24.746;2023-07-09T10:05:27;7.00;;;2.67;;
8319;SDS011;4197;42.130;24.746;2023-07-09T10:08:00;4.95;;;2.50;;
8319;SDS011;4197;42.130;24.746;2023-07-09T10:10:45;4.22;;;2.80;;
8319;SDS011;4197;42.130;24.746;2023-07-09T10:13:17;4.53;;;2.47;;
8319;SDS011;4197;42.130;24.746;2023-07-09T10:15:59;5.10;;;2.90;;
8319;SDS011;4197;42.130;24.746;2023-07-09T10:18:36;5.30;;;3.05;;
8319;SDS011;4197;42.130;24.746;2023-07-09T10:21:14;8.18;;;3.90;;
8319;SDS011;4197;42.130;24.746;2023-07-09T10:23:48;5.93;;;2.80;;
8319;SDS011;4197;42.130;24.746;2023-07-09T10:26:27;4.50;;;2.88;;
8319;SDS011;4197;42.130;24.746;2023-07-09T10:29:21;4.20;;;3.25;;
8319;SDS011;4197;42.130;24.746;2023-07-09T10:32:01;3.88;;;2.83;;
8319;SDS011;4197;42.130;24.746;2023-07-09T10:34:38;2.42;;;2.17;;
8319;SDS011;4197;42.130;24.746;2023-07-09T10:37:27;10.93;;;2.65;;
8319;SDS011;4197;42.130;24.746;2023-07-09T10:40:12;5.95;;;2.80;;
8319;SDS011;4197;42.130;24.746;2023-07-09T10:42:44;4.72;;;2.55;;
8319;SDS011;4197;42.130;24.746;2023-07-09T10:45:19;6.38;;;2.72;;
8319;SDS011;4197;42.130;24.746;2023-07-09T10:47:55;3.63;;;2.80;;
8319;SDS011;4197;42.130;24.746;2023-07-09T10:50:30;4.93;;;2.67;;
8319;SDS011;4197;42.130;24.746;2023-07-09T10:53:02;5.93;;;2.95;;
8319;SDS011;4197;42.130;24.746;2023-07-09T10:55:39;3.97;;;2.65;;
8319;SDS011;4197;42.130;24.746;2023-07-09T10:58:15;5.00;;;2.90;;
8319;SDS011;4197;42.130;24.746;2023-07-09T11:00:54;5.35;;;2.58;;
8319;SDS011;4197;42.130;24.746;2023-07-09T11:03:29;2.83;;;2.33;;
8319;SDS011;4197;42.130;24.746;2023-07-09T11:06:09;3.60;;;2.58;;
8319;SDS011;4197;42.130;24.746;2023-07-09T11:08:45;4.40;;;2.75;;
8319;SDS011;4197;42.130;24.746;2023-07-09T11:11:20;3.42;;;2.90;;
8319;SDS011;4197;42.130;24.746;2023-07-09T11:13:54;3.85;;;2.95;;
8319;SDS011;4197;42.130;24.746;2023-07-09T11:16:30;3.95;;;2.83;;
8319;SDS011;4197;42.130;24.746;2023-07-09T11:19:03;4.70;;;2.30;;
8319;SDS011;4197;42.130;24.746;2023-07-09T11:21:40;3.53;;;3.13;;
8319;SDS011;4197;42.130;24.746;2023-07-09T11:24:26;3.10;;;2.78;;
8319;SDS011;4197;42.130;24.746;2023-07-09T11:26:58;7.03;;;2.97;;
8319;SDS011;4197;42.130;24.746;2023-07-09T11:29:27;3.65;;;2.40;;
8319;SDS011;4197;42.130;24.746;2023-07-09T11:32:06;6.75;;;2.58;;
8319;SDS011;4197;42.130;24.746;2023-07-09T11:34:43;4.50;;;2.53;;
8319;SDS011;4197;42.130;24.746;2023-07-09T11:37:14;4.53;;;2.58;;
8319;SDS011;4197;42.130;24.746;2023-07-09T11:39:44;4.40;;;2.70;;
8319;SDS011;4197;42.130;24.746;2023-07-09T11:42:24;3.58;;;2.60;;
8319;SDS011;4197;42.130;24.746;2023-07-09T11:44:57;2.90;;;2.20;;
8319;SDS011;4197;42.130;24.746;2023-07-09T11:47:32;3.78;;;2.63;;
8319;SDS011;4197;42.130;24.746;2023-07-09T11:50:06;5.68;;;2.97;;
8319;SDS011;4197;42.130;24.746;2023-07-09T11:52:51;4.53;;;2.78;;
8319;SDS011;4197;42.130;24.746;2023-07-09T11:55:26;4.10;;;2.65;;
8319;SDS011;4197;42.130;24.746;2023-07-09T11:57:56;4.30;;;2.60;;
8319;SDS011;4197;42.130;24.746;2023-07-09T12:00:27;8.23;;;2.88;;
8319;SDS011;4197;42.130;24.746;2023-07-09T12:02:59;4.22;;;2.63;;
8319;SDS011;4197;42.130;24.746;2023-07-09T12:05:29;3.17;;;2.60;;
8319;SDS011;4197;42.130;24.746;2023-07-09T12:07:58;4.80;;;2.88;;
8319;SDS011;4197;42.130;24.746;2023-07-09T12:10:27;4.90;;;3.05;;
8319;SDS011;4197;42.130;24.746;2023-07-09T12:13:00;5.72;;;2.72;;
8319;SDS011;4197;42.130;24.746;2023-07-09T12:15:30;4.35;;;2.53;;
8319;SDS011;4197;42.130;24.746;2023-07-09T12:18:01;3.28;;;2.05;;
8319;SDS011;4197;42.130;24.746;2023-07-09T12:20:34;3.67;;;2.53;;
8319;SDS011;4197;42.130;24.746;2023-07-09T12:23:09;4.45;;;3.00;;
8319;SDS011;4197;42.130;24.746;2023-07-09T12:25:38;4.57;;;2.67;;
8319;SDS011;4197;42.130;24.746;2023-07-09T12:28:12;3.03;;;2.47;;
8319;SDS011;4197;42.130;24.746;2023-07-09T12:30:44;4.22;;;2.38;;
8319;SDS011;4197;42.130;24.746;2023-07-09T12:33:17;2.58;;;2.22;;
8319;SDS011;4197;42.130;24.746;2023-07-09T12:35:47;2.80;;;2.40;;
8319;SDS011;4197;42.130;24.746;2023-07-09T12:38:19;4.13;;;2.90;;
8319;SDS011;4197;42.130;24.746;2023-07-09T12:40:50;6.88;;;2.53;;
8319;SDS011;4197;42.130;24.746;2023-07-09T12:43:19;3.90;;;2.90;;
8319;SDS011;4197;42.130;24.746;2023-07-09T12:45:52;3.28;;;2.60;;
8319;SDS011;4197;42.130;24.746;2023-07-09T12:48:23;3.03;;;2.72;;
8319;SDS011;4197;42.130;24.746;2023-07-09T12:50:54;6.72;;;3.20;;
8319;SDS011;4197;42.130;24.746;2023-07-09T12:53:25;5.32;;;2.88;;
8319;SDS011;4197;42.130;24.746;2023-07-09T12:56:00;6.53;;;2.85;;
8319;SDS011;4197;42.130;24.746;2023-07-09T12:58:29;3.42;;;2.38;;
8319;SDS011;4197;42.130;24.746;2023-07-09T13:00:59;4.70;;;2.80;;
8319;SDS011;4197;42.130;24.746;2023-07-09T13:03:35;3.00;;;2.65;;
8319;SDS011;4197;42.130;24.746;2023-07-09T13:06:04;9.38;;;2.92;;
8319;SDS011;4197;42.130;24.746;2023-07-09T13:08:40;3.20;;;2.67;;
8319;SDS011;4197;42.130;24.746;2023-07-09T13:11:14;6.25;;;2.75;;
8319;SDS011;4197;42.130;24.746;2023-07-09T13:13:53;4.97;;;2.63;;
8319;SDS011;4197;42.130;24.746;2023-07-09T13:16:22;3.88;;;2.95;;
8319;SDS011;4197;42.130;24.746;2023-07-09T13:18:53;3.97;;;2.63;;
8319;SDS011;4197;42.130;24.746;2023-07-09T13:21:22;4.35;;;2.58;;
8319;SDS011;4197;42.130;24.746;2023-07-09T13:23:50;4.20;;;2.83;;
8319;SDS011;4197;42.130;24.746;2023-07-09T13:26:21;4.72;;;2.95;;
8319;SDS011;4197;42.130;24.746;2023-07-09T13:28:50;4.20;;;3.28;;
8319;SDS011;4197;42.130;24.746;2023-07-09T13:31:19;5.75;;;2.63;;
8319;SDS011;4197;42.130;24.746;2023-07-09T13:33:50;3.50;;;2.80;;
8319;SDS011;4197;42.130;24.746;2023-07-09T13:36:22;4.30;;;3.10;;
8319;SDS011;4197;42.130;24.746;2023-07-09T13:38:51;3.97;;;2.67;;
8319;SDS011;4197;42.130;24.746;2023-07-09T13:41:19;6.72;;;2.92;;
8319;SDS011;4197;42.130;24.746;2023-07-09T13:43:49;3.47;;;2.88;;
8319;SDS011;4197;42.130;24.746;2023-07-09T13:46:18;3.20;;;2.58;;
8319;SDS011;4197;42.130;24.746;2023-07-09T13:48:46;5.25;;;2.72;;
8319;SDS011;4197;42.130;24.746;2023-07-09T13:51:17;5.80;;;2.60;;
8319;SDS011;4197;42.130;24.746;2023-07-09T13:53:46;2.95;;;2.67;;
8319;SDS011;4197;42.130;24.746;2023-07-09T13:56:16;4.30;;;2.75;;
8319;SDS011;4197;42.130;24.746;2023-07-09T13:58:44;3.65;;;2.67;;
8319;SDS011;4197;42.130;24.746;2023-07-09T14:01:13;4.60;;;2.75;;
8319;SDS011;4197;42.130;24.746;2023-07-09T14:03:43;5.55;;;2.83;;
8319;SDS011;4197;42.130;24.746;2023-07-09T14:06:12;3.95;;;2.90;;
8319;SDS011;4197;42.130;24.746;2023-07-09T14:08:43;3.53;;;3.00;;
8319;SDS011;4197;42.130;24.746;2023-07-09T14:11:12;4.30;;;2.58;;
8319;SDS011;4197;42.130;24.746;2023-07-09T14:13:44;4.80;;;2.85;;
8319;SDS011;4197;42.130;24.746;2023-07-09T14:16:13;5.38;;;2.80;;
8319;SDS011;4197;42.130;24.746;2023-07-09T14:18:42;3.83;;;3.00;;
8319;SDS011;4197;42.130;24.746;2023-07-09T14:21:12;4.30;;;2.90;;
8319;SDS011;4197;42.130;24.746;2023-07-09T14:23:41;4.25;;;2.80;;
8319;SDS011;4197;42.130;24.746;2023-07-09T14:26:10;4.97;;;3.00;;
8319;SDS011;4197;42.130;24.746;2023-07-09T14:28:38;3.00;;;2.50;;
8319;SDS011;4197;42.130;24.746;2023-07-09T14:31:09;5.50;;;2.60;;
8319;SDS011;4197;42.130;24.746;2023-07-09T14:33:47;3.72;;;3.10;;
8319;SDS011;4197;42.130;24.746;2023-07-09T14:36:15;3.28;;;2.70;;
8319;SDS011;4197;42.130;24.746;2023-07-09T14:38:46;4.65;;;2.67;;
8319;SDS011;4197;42.130;24.746;2023-07-09T14:41:18;5.97;;;2.78;;
8319;SDS011;4197;42.130;24.746;2023-07-09T14:43:50;3.75;;;2.75;;
8319;SDS011;4197;42.130;24.746;2023-07-09T14:46:18;3.03;;;2.47;;
8319;SDS011;4197;42.130;24.746;2023-07-09T14:48:47;5.38;;;2.90;;
8319;SDS011;4197;42.130;24.746;2023-07-09T14:51:15;4.55;;;2.97;;
8319;SDS011;4197;42.130;24.746;2023-07-09T14:53:46;4.45;;;2.72;;
8319;SDS011;4197;42.130;24.746;2023-07-09T14:56:14;4.28;;;2.60;;
8319;SDS011;4197;42.130;24.746;2023-07-09T14:58:42;3.42;;;2.50;;
8319;SDS011;4197;42.130;24.746;2023-07-09T15:01:11;3.22;;;2.53;;
8319;SDS011;4197;42.130;24.746;2023-07-09T15:03:41;4.05;;;2.42;;
8319;SDS011;4197;42.130;24.746;2023-07-09T15:06:09;3.50;;;2.40;;
8319;SDS011;4197;42.130;24.746;2023-07-09T15:08:38;6.78;;;3.03;;
8319;SDS011;4197;42.130;24.746;2023-07-09T15:11:08;3.60;;;2.65;;
8319;SDS011;4197;42.130;24.746;2023-07-09T15:13:38;6.05;;;2.67;;
8319;SDS011;4197;42.130;24.746;2023-07-09T15:16:06;6.30;;;2.58;;
8319;SDS011;4197;42.130;24.746;2023-07-09T15:18:36;4.60;;;2.70;;
8319;SDS011;4197;42.130;24.746;2023-07-09T15:21:04;3.60;;;2.50;;
8319;SDS011;4197;42.130;24.746;2023-07-09T15:23:34;3.55;;;2.72;;